createdAt,value
2018-12-23T00:00:38.702Z,0.00
2018-12-23T00:01:38.747Z,0.00
2018-12-23T00:02:38.972Z,0.00
2018-12-23T00:03:39.202Z,0.00
2018-12-23T00:04:39.398Z,0.00
2018-12-23T00:05:39.642Z,0.00
2018-12-23T00:06:39.440Z,0.00
2018-12-23T00:07:39.722Z,0.00
2018-12-23T00:08:39.565Z,0.00
2018-12-23T00:09:39.926Z,0.00
2018-12-23T00:10:40.467Z,0.00
2018-12-23T00:12:40.237Z,0.00
2018-12-23T00:13:40.565Z,0.00
2018-12-23T00:14:40.781Z,0.00
2018-12-23T00:15:41.053Z,0.00
2018-12-23T00:16:41.567Z,0.00
2018-12-23T00:17:42.017Z,0.00
2018-12-23T00:18:42.427Z,0.00
2018-12-23T00:19:42.675Z,0.00
2018-12-23T00:20:43.021Z,0.00
2018-12-23T00:21:43.528Z,0.00
2018-12-23T00:22:44.239Z,0.00
2018-12-23T00:23:44.365Z,0.00
2018-12-23T00:24:44.459Z,0.00
2018-12-23T00:25:44.798Z,0.00
2018-12-23T00:26:45.295Z,0.00
2018-12-23T00:27:45.613Z,0.00
2018-12-23T00:28:46.062Z,0.00
2018-12-23T00:29:46.160Z,0.00
2018-12-23T00:30:46.166Z,0.00
2018-12-23T00:31:46.024Z,0.00
2018-12-23T00:32:46.652Z,0.00
2018-12-23T00:33:46.488Z,0.00
2018-12-23T00:34:46.603Z,0.00
2018-12-23T00:35:46.836Z,0.00
2018-12-23T00:36:47.250Z,0.00
2018-12-23T00:37:47.810Z,0.00
2018-12-23T00:38:47.626Z,0.00
2018-12-23T00:39:47.589Z,0.00
2018-12-23T00:40:48.174Z,0.00
2018-12-23T00:41:48.222Z,0.00
2018-12-23T00:42:48.384Z,0.00
2018-12-23T00:43:48.505Z,0.00
2018-12-23T00:44:48.814Z,0.00
2018-12-23T00:45:48.930Z,0.00
2018-12-23T00:46:49.078Z,0.00
2018-12-23T00:47:49.330Z,0.00
2018-12-23T00:48:49.381Z,0.00
2018-12-23T00:49:49.717Z,0.00
2018-12-23T00:50:49.823Z,0.00
2018-12-23T00:52:50.079Z,0.00
2018-12-23T00:53:50.224Z,0.00
2018-12-23T00:54:50.503Z,0.00
2018-12-23T00:55:50.659Z,0.00
2018-12-23T00:56:50.744Z,0.00
2018-12-23T00:57:50.882Z,0.00
2018-12-23T00:58:51.123Z,0.00
2018-12-23T00:59:51.440Z,0.00
2018-12-23T01:00:51.481Z,0.00
2018-12-23T01:01:51.508Z,0.00
2018-12-23T01:02:51.696Z,0.00
2018-12-23T01:03:51.926Z,0.00
2018-12-23T01:04:52.056Z,0.00
2018-12-23T01:05:52.126Z,0.00
2018-12-23T01:06:52.205Z,0.00
2018-12-23T01:07:52.276Z,0.00
2018-12-23T01:08:52.325Z,0.00
2018-12-23T01:09:52.265Z,0.00
2018-12-23T01:10:52.843Z,0.00
2018-12-23T01:11:52.961Z,0.00
2018-12-23T01:12:52.840Z,0.00
2018-12-23T01:13:53.214Z,0.00
2018-12-23T01:14:53.257Z,0.00
2018-12-23T01:15:53.612Z,0.00
2018-12-23T01:16:53.855Z,0.00
2018-12-23T01:17:53.848Z,0.00
2018-12-23T01:18:54.150Z,0.00
2018-12-23T01:19:54.588Z,0.00
2018-12-23T01:20:55.080Z,0.00
2018-12-23T01:21:55.089Z,0.00
2018-12-23T01:22:55.319Z,0.00
2018-12-23T01:23:55.739Z,0.00
2018-12-23T01:24:55.979Z,0.00
2018-12-23T01:25:56.515Z,0.00
2018-12-23T01:26:56.870Z,0.00
2018-12-23T01:27:57.105Z,0.00
2018-12-23T01:28:57.539Z,0.00
2018-12-23T01:29:57.766Z,0.00
2018-12-23T01:30:57.990Z,0.00
2018-12-23T01:31:58.498Z,0.00
2018-12-23T01:32:58.978Z,0.00
2018-12-23T01:33:59.314Z,0.00
2018-12-23T01:34:59.622Z,0.00
2018-12-23T01:36:00.046Z,0.00
2018-12-23T01:37:00.516Z,0.00
2018-12-23T01:39:00.424Z,0.00
2018-12-23T01:40:00.689Z,0.00
2018-12-23T01:41:01.358Z,0.00
2018-12-23T01:42:01.438Z,0.00
2018-12-23T01:43:01.629Z,0.00
2018-12-23T01:44:01.512Z,0.00
2018-12-23T01:45:02.079Z,0.00
2018-12-23T01:46:02.348Z,0.00
2018-12-23T01:47:02.536Z,0.00
2018-12-23T01:48:02.621Z,0.00
2018-12-23T01:49:02.636Z,0.00
2018-12-23T01:50:02.714Z,0.00
2018-12-23T01:51:02.701Z,0.00
2018-12-23T01:52:02.899Z,0.00
2018-12-23T01:53:02.948Z,0.00
2018-12-23T01:54:02.985Z,0.00
2018-12-23T01:55:03.036Z,0.00
2018-12-23T01:56:03.233Z,0.00
2018-12-23T01:57:03.491Z,0.00
2018-12-23T01:58:03.599Z,0.00
2018-12-23T01:59:03.675Z,0.00
2018-12-23T02:00:03.767Z,0.00
2018-12-23T02:01:04.258Z,0.00
2018-12-23T02:02:04.509Z,0.00
2018-12-23T02:03:04.576Z,0.00
2018-12-23T02:04:04.635Z,0.00
2018-12-23T02:05:04.701Z,0.00
2018-12-23T02:06:04.897Z,0.00
2018-12-23T02:07:05.000Z,0.00
2018-12-23T02:08:05.051Z,0.00
2018-12-23T02:09:05.259Z,0.00
2018-12-23T02:10:05.331Z,0.00
2018-12-23T02:11:05.592Z,0.00
2018-12-23T02:12:05.758Z,0.00
2018-12-23T02:13:05.828Z,0.00
2018-12-23T02:14:05.903Z,0.00
2018-12-23T02:15:06.124Z,0.00
2018-12-23T02:16:06.215Z,0.00
2018-12-23T02:17:06.322Z,0.00
2018-12-23T02:18:06.456Z,0.00
2018-12-23T02:19:06.557Z,0.00
2018-12-23T02:20:06.720Z,0.00
2018-12-23T02:21:06.778Z,0.00
2018-12-23T02:22:06.824Z,0.00
2018-12-23T02:23:06.905Z,0.00
2018-12-23T02:24:07.048Z,0.00
2018-12-23T02:25:06.965Z,0.00
2018-12-23T02:26:07.477Z,0.00
2018-12-23T02:27:07.599Z,0.00
2018-12-23T02:28:07.587Z,0.00
2018-12-23T02:29:07.709Z,0.00
2018-12-23T02:30:07.731Z,0.00
2018-12-23T02:31:07.599Z,0.00
2018-12-23T02:32:08.125Z,0.00
2018-12-23T02:33:08.051Z,0.00
2018-12-23T02:34:08.585Z,0.00
2018-12-23T02:35:08.594Z,0.00
2018-12-23T02:36:08.322Z,0.00
2018-12-23T02:37:08.870Z,0.00
2018-12-23T02:38:08.891Z,0.00
2018-12-23T02:39:09.111Z,0.00
2018-12-23T02:40:09.752Z,0.00
2018-12-23T02:41:09.877Z,0.00
2018-12-23T02:42:09.648Z,0.00
2018-12-23T02:43:10.098Z,0.00
2018-12-23T02:44:10.349Z,0.00
2018-12-23T02:45:10.810Z,0.00
2018-12-23T02:46:11.299Z,0.00
2018-12-23T02:47:11.656Z,0.00
2018-12-23T02:48:12.020Z,0.00
2018-12-23T02:49:12.492Z,0.00
2018-12-23T02:50:12.836Z,0.00
2018-12-23T02:51:13.098Z,0.00
2018-12-23T02:52:13.664Z,0.00
2018-12-23T02:53:13.420Z,0.00
2018-12-23T02:54:13.696Z,0.00
2018-12-23T02:55:14.366Z,0.00
2018-12-23T02:56:14.116Z,0.00
2018-12-23T02:57:14.366Z,0.00
2018-12-23T02:58:14.795Z,0.00
2018-12-23T02:59:15.168Z,0.00
2018-12-23T03:00:15.699Z,0.00
2018-12-23T03:01:15.407Z,0.00
2018-12-23T03:02:15.946Z,0.00
2018-12-23T03:03:15.773Z,0.00
2018-12-23T03:04:16.182Z,0.00
2018-12-23T03:05:16.505Z,0.00
2018-12-23T03:06:16.735Z,0.00
2018-12-23T03:07:17.198Z,0.00
2018-12-23T03:08:17.455Z,0.00
2018-12-23T03:09:17.700Z,0.00
2018-12-23T03:10:20.765Z,0.00
2018-12-23T03:11:18.341Z,0.00
2018-12-23T03:12:18.453Z,0.00
2018-12-23T03:13:18.492Z,0.00
2018-12-23T03:15:02.701Z,0.00
2018-12-23T03:16:02.957Z,0.00
2018-12-23T03:17:03.169Z,0.00
2018-12-23T03:18:03.366Z,0.00
2018-12-23T03:19:03.568Z,0.00
2018-12-23T03:20:03.787Z,0.00
2018-12-23T03:21:04.026Z,0.00
2018-12-23T03:22:04.220Z,0.00
2018-12-23T03:23:04.411Z,0.00
2018-12-23T03:24:04.611Z,0.00
2018-12-23T03:25:04.810Z,0.00
2018-12-23T03:26:05.009Z,0.00
2018-12-23T03:27:05.210Z,0.00
2018-12-23T03:28:05.411Z,0.00
2018-12-23T03:29:05.621Z,0.00
2018-12-23T03:30:05.830Z,0.00
2018-12-23T03:31:06.037Z,0.00
2018-12-23T03:32:06.237Z,0.00
2018-12-23T03:33:06.449Z,0.00
2018-12-23T03:34:06.620Z,0.00
2018-12-23T03:35:06.837Z,0.00
2018-12-23T03:36:15.032Z,0.00
2018-12-23T03:37:07.291Z,0.00
2018-12-23T03:38:07.486Z,0.00
2018-12-23T03:39:07.681Z,0.00
2018-12-23T03:40:07.891Z,0.00
2018-12-23T03:41:08.086Z,0.00
2018-12-23T03:42:08.342Z,0.00
2018-12-23T03:43:08.544Z,0.00
2018-12-23T03:44:08.736Z,0.00
2018-12-23T03:45:08.932Z,0.00
2018-12-23T03:46:09.133Z,0.00
2018-12-23T03:47:09.327Z,0.00
2018-12-23T03:48:09.522Z,0.00
2018-12-23T03:49:09.728Z,0.00
2018-12-23T03:50:09.920Z,0.00
2018-12-23T03:51:10.122Z,0.00
2018-12-23T03:52:10.309Z,0.00
2018-12-23T03:53:10.506Z,0.00
2018-12-23T03:54:10.718Z,0.00
2018-12-23T03:55:10.915Z,0.00
2018-12-23T03:56:11.117Z,0.00
2018-12-23T03:57:11.308Z,0.00
2018-12-23T03:58:11.499Z,0.00
2018-12-23T03:59:11.695Z,0.00
2018-12-23T04:00:11.888Z,0.00
2018-12-23T04:01:12.098Z,0.00
2018-12-23T04:02:12.316Z,0.00
2018-12-23T04:03:12.485Z,0.00
2018-12-23T04:04:12.787Z,0.00
2018-12-23T04:05:12.868Z,0.00
2018-12-23T04:06:13.071Z,0.00
2018-12-23T04:07:13.256Z,0.00
2018-12-23T04:08:13.467Z,0.00
2018-12-23T04:09:13.661Z,0.00
2018-12-23T04:10:13.857Z,0.00
2018-12-23T04:11:14.076Z,0.00
2018-12-23T04:12:14.280Z,0.00
2018-12-23T04:13:14.475Z,0.00
2018-12-23T04:14:14.683Z,0.00
2018-12-23T04:15:14.879Z,0.00
2018-12-23T04:16:15.107Z,0.00
2018-12-23T04:17:15.330Z,0.00
2018-12-23T04:18:15.543Z,0.00
2018-12-23T04:19:15.743Z,0.00
2018-12-23T04:20:15.953Z,0.00
2018-12-23T04:21:16.150Z,0.00
2018-12-23T04:23:16.437Z,0.00
2018-12-23T04:24:16.658Z,0.00
2018-12-23T04:25:16.856Z,0.00
2018-12-23T04:26:17.051Z,0.00
2018-12-23T04:27:17.286Z,0.00
2018-12-23T04:28:17.501Z,0.00
2018-12-23T04:29:17.715Z,0.00
2018-12-23T04:30:17.905Z,0.00
2018-12-23T04:31:18.106Z,0.00
2018-12-23T04:32:18.310Z,0.00
2018-12-23T04:33:18.522Z,0.00
2018-12-23T04:34:18.720Z,0.00
2018-12-23T04:35:18.931Z,0.00
2018-12-23T04:36:19.131Z,0.00
2018-12-23T04:37:19.435Z,0.00
2018-12-23T04:38:19.624Z,0.00
2018-12-23T04:39:19.842Z,0.00
2018-12-23T04:40:20.064Z,0.00
2018-12-23T04:41:20.253Z,0.00
2018-12-23T04:42:20.467Z,0.00
2018-12-23T04:43:20.662Z,0.00
2018-12-23T04:44:20.856Z,0.00
2018-12-23T04:45:21.053Z,0.00
2018-12-23T04:46:21.247Z,0.00
2018-12-23T04:47:21.459Z,0.00
2018-12-23T04:48:21.654Z,0.00
2018-12-23T04:49:21.850Z,0.00
2018-12-23T04:50:22.062Z,0.00
2018-12-23T04:51:22.272Z,0.00
2018-12-23T04:52:22.464Z,0.00
2018-12-23T04:53:22.688Z,0.00
2018-12-23T04:54:22.884Z,0.00
2018-12-23T04:55:25.292Z,0.00
2018-12-23T04:56:23.298Z,0.00
2018-12-23T04:57:23.505Z,0.00
2018-12-23T04:58:23.701Z,0.00
2018-12-23T04:59:23.899Z,0.00
2018-12-23T05:00:24.101Z,0.00
2018-12-23T05:01:24.299Z,0.00
2018-12-23T05:03:24.520Z,0.00
2018-12-23T05:04:24.717Z,0.00
2018-12-23T05:05:24.925Z,0.00
2018-12-23T05:06:25.141Z,0.00
2018-12-23T05:07:25.324Z,0.00
2018-12-23T05:08:25.550Z,0.00
2018-12-23T05:09:25.816Z,0.00
2018-12-23T05:10:25.973Z,0.00
2018-12-23T05:11:26.183Z,0.00
2018-12-23T05:12:26.407Z,0.00
2018-12-23T05:13:26.623Z,0.00
2018-12-23T05:14:26.830Z,0.00
2018-12-23T05:15:27.023Z,0.00
2018-12-23T05:16:27.227Z,0.00
2018-12-23T05:17:27.436Z,0.00
2018-12-23T05:18:27.653Z,0.00
2018-12-23T05:19:27.853Z,0.00
2018-12-23T05:20:28.051Z,0.00
2018-12-23T05:21:28.250Z,0.00
2018-12-23T05:22:28.450Z,0.00
2018-12-23T05:23:28.643Z,0.00
2018-12-23T05:24:28.851Z,0.00
2018-12-23T05:25:29.040Z,0.00
2018-12-23T05:26:29.244Z,0.00
2018-12-23T05:27:29.448Z,0.00
2018-12-23T05:28:29.642Z,0.00
2018-12-23T05:29:29.848Z,0.00
2018-12-23T05:30:30.059Z,0.00
2018-12-23T05:31:30.260Z,0.00
2018-12-23T05:32:30.452Z,0.00
2018-12-23T05:33:30.681Z,0.00
2018-12-23T05:34:30.896Z,0.00
2018-12-23T05:35:31.102Z,0.00
2018-12-23T05:36:31.296Z,0.00
2018-12-23T05:37:31.485Z,0.00
2018-12-23T05:38:31.694Z,0.00
2018-12-23T05:39:31.891Z,0.00
2018-12-23T05:40:32.087Z,0.00
2018-12-23T05:41:32.314Z,0.00
2018-12-23T05:42:32.514Z,0.00
2018-12-23T05:43:32.721Z,0.00
2018-12-23T05:44:32.941Z,0.00
2018-12-23T05:45:33.142Z,0.00
2018-12-23T05:47:33.354Z,0.00
2018-12-23T05:48:33.559Z,0.00
2018-12-23T05:49:33.951Z,0.00
2018-12-23T05:50:34.151Z,0.00
2018-12-23T05:51:34.354Z,0.00
2018-12-23T05:52:34.548Z,0.00
2018-12-23T05:53:34.749Z,0.00
2018-12-23T05:54:34.964Z,0.00
2018-12-23T05:55:35.165Z,0.00
2018-12-23T05:56:35.195Z,0.00
2018-12-23T05:57:35.393Z,0.00
2018-12-23T05:58:35.588Z,0.00
2018-12-23T05:59:35.788Z,0.00
2018-12-23T06:00:36.000Z,0.00
2018-12-23T06:02:36.215Z,0.00
2018-12-23T06:03:36.409Z,0.00
2018-12-23T06:04:36.617Z,0.00
2018-12-23T06:05:36.823Z,0.00
2018-12-23T06:06:37.021Z,0.00
2018-12-23T06:07:37.338Z,0.00
2018-12-23T06:08:37.551Z,0.00
2018-12-23T06:09:37.757Z,0.00
2018-12-23T06:10:37.962Z,0.00
2018-12-23T06:11:38.168Z,0.00
2018-12-23T06:12:38.364Z,0.00
2018-12-23T06:14:38.765Z,0.00
2018-12-23T06:15:39.130Z,0.00
2018-12-23T06:16:39.324Z,0.00
2018-12-23T06:17:39.517Z,0.00
2018-12-23T06:19:39.725Z,0.00
2018-12-23T06:20:39.937Z,0.00
2018-12-23T06:21:40.140Z,0.00
2018-12-23T06:22:40.352Z,0.00
2018-12-23T06:23:40.552Z,0.00
2018-12-23T06:24:40.744Z,0.00
2018-12-23T06:25:40.947Z,0.00
2018-12-23T06:26:41.146Z,0.00
2018-12-23T06:27:41.339Z,0.00
2018-12-23T06:28:41.539Z,0.00
2018-12-23T06:29:41.738Z,0.00
2018-12-23T06:30:41.956Z,0.00
2018-12-23T06:31:42.172Z,0.00
2018-12-23T06:32:42.366Z,0.00
2018-12-23T06:33:42.567Z,0.00
2018-12-23T06:34:42.757Z,0.00
2018-12-23T06:35:42.964Z,0.00
2018-12-23T06:36:43.155Z,0.00
2018-12-23T06:37:43.348Z,0.00
2018-12-23T06:38:43.545Z,0.00
2018-12-23T06:39:43.743Z,0.00
2018-12-23T06:40:43.961Z,0.00
2018-12-23T06:41:44.159Z,0.00
2018-12-23T06:42:44.632Z,1.00
2018-12-23T06:43:44.811Z,1.00
2018-12-23T06:44:45.015Z,1.00
2018-12-23T06:45:45.212Z,0.00
2018-12-23T06:46:45.476Z,0.00
2018-12-23T06:47:45.676Z,1.00
2018-12-23T06:48:45.919Z,1.00
2018-12-23T06:49:46.113Z,1.00
2018-12-23T06:52:46.522Z,3.00
2018-12-23T06:53:46.724Z,4.00
2018-12-23T06:54:46.923Z,4.00
2018-12-23T06:55:47.112Z,5.00
2018-12-23T06:56:47.334Z,5.00
2018-12-23T06:57:47.546Z,7.00
2018-12-23T06:58:47.776Z,8.00
2018-12-23T06:59:48.026Z,10.00
2018-12-23T07:00:48.220Z,11.00
2018-12-23T07:01:48.424Z,13.00
2018-12-23T07:02:48.632Z,15.00
2018-12-23T07:03:48.834Z,18.00
2018-12-23T07:04:49.143Z,20.00
2018-12-23T07:05:49.229Z,23.00
2018-12-23T07:06:49.460Z,27.00
2018-12-23T07:07:49.658Z,31.00
2018-12-23T07:08:49.862Z,35.00
2018-12-23T07:09:50.075Z,39.00
2018-12-23T07:10:50.284Z,44.00
2018-12-23T07:11:50.492Z,49.00
2018-12-23T07:12:50.712Z,55.00
2018-12-23T07:13:50.903Z,61.00
2018-12-23T07:14:51.130Z,68.00
2018-12-23T07:15:51.337Z,75.00
2018-12-23T07:16:51.563Z,83.00
2018-12-23T07:17:51.761Z,91.00
2018-12-23T07:18:51.969Z,100.00
2018-12-23T07:19:52.177Z,109.00
2018-12-23T07:20:52.380Z,119.00
2018-12-23T07:21:52.661Z,128.00
2018-12-23T07:22:52.899Z,136.00
2018-12-23T07:23:53.098Z,143.00
2018-12-23T07:24:53.304Z,149.00
2018-12-23T07:25:53.495Z,161.00
2018-12-23T07:26:53.710Z,173.00
2018-12-23T07:27:53.925Z,187.00
2018-12-23T07:28:54.139Z,202.00
2018-12-23T07:29:54.359Z,216.00
2018-12-23T07:30:54.653Z,233.00
2018-12-23T07:31:54.884Z,247.00
2018-12-23T07:32:55.106Z,261.00
2018-12-23T07:33:55.308Z,278.00
2018-12-23T07:34:55.508Z,296.00
2018-12-23T07:35:55.762Z,316.00
2018-12-23T07:36:55.976Z,333.00
2018-12-23T07:37:56.233Z,350.00
2018-12-23T07:38:56.445Z,365.00
2018-12-23T07:39:56.664Z,370.00
2018-12-23T07:40:56.871Z,375.00
2018-12-23T07:41:57.210Z,387.00
2018-12-23T07:42:57.394Z,403.00
2018-12-23T07:44:57.643Z,456.00
2018-12-23T07:45:57.827Z,487.00
2018-12-23T07:47:58.051Z,529.00
2018-12-23T07:48:58.324Z,545.00
2018-12-23T07:49:58.526Z,563.00
2018-12-23T07:50:58.718Z,597.00
2018-12-23T07:51:58.926Z,652.00
2018-12-23T07:52:59.131Z,691.00
2018-12-23T07:53:59.367Z,712.00
2018-12-23T07:54:59.570Z,716.00
2018-12-23T07:55:59.806Z,712.00
2018-12-23T07:57:00.012Z,708.00
2018-12-23T07:58:00.233Z,724.00
2018-12-23T07:59:00.445Z,745.00
2018-12-23T08:00:00.671Z,775.00
2018-12-23T08:01:00.935Z,809.00
2018-12-23T08:02:01.190Z,839.00
2018-12-23T08:03:01.391Z,874.00
2018-12-23T08:04:01.595Z,924.00
2018-12-23T08:05:01.811Z,978.00
2018-12-23T08:06:02.134Z,1035.00
2018-12-23T08:07:02.348Z,1080.00
2018-12-23T08:08:02.550Z,1108.00
2018-12-23T08:09:02.758Z,1130.00
2018-12-23T08:10:02.906Z,1149.00
2018-12-23T08:11:03.117Z,1168.00
2018-12-23T08:12:03.313Z,1187.00
2018-12-23T08:13:03.516Z,1199.00
2018-12-23T08:14:03.759Z,1219.00
2018-12-23T08:15:03.952Z,1240.00
2018-12-23T08:16:04.173Z,1277.00
2018-12-23T08:17:04.491Z,1304.00
2018-12-23T08:18:05.874Z,1329.00
2018-12-23T08:19:04.938Z,1351.00
2018-12-23T08:20:05.145Z,1377.00
2018-12-23T08:21:05.363Z,1393.00
2018-12-23T08:22:05.573Z,1428.00
2018-12-23T08:23:05.787Z,1520.00
2018-12-23T08:24:05.973Z,1610.00
2018-12-23T08:25:06.174Z,1708.00
2018-12-23T08:26:06.397Z,1772.00
2018-12-23T08:27:06.578Z,1781.00
2018-12-23T08:28:06.774Z,1775.00
2018-12-23T08:29:06.984Z,1763.00
2018-12-23T08:30:07.194Z,1807.00
2018-12-23T08:31:07.392Z,1841.00
2018-12-23T08:32:07.605Z,1924.00
2018-12-23T08:33:07.818Z,1990.00
2018-12-23T08:34:08.031Z,2053.00
2018-12-23T08:35:08.258Z,2134.00
2018-12-23T08:36:08.458Z,2209.00
2018-12-23T08:37:08.677Z,2273.00
2018-12-23T08:38:08.879Z,2371.00
2018-12-23T08:39:09.124Z,2454.00
2018-12-23T08:40:09.366Z,2526.00
2018-12-23T08:41:09.566Z,2562.00
2018-12-23T08:42:09.760Z,2599.00
2018-12-23T08:43:09.960Z,2599.00
2018-12-23T08:44:10.176Z,2583.00
2018-12-23T08:45:10.378Z,2555.00
2018-12-23T08:46:10.595Z,2457.00
2018-12-23T08:47:10.821Z,2375.00
2018-12-23T08:48:11.024Z,2330.00
2018-12-23T08:49:11.251Z,2275.00
2018-12-23T08:50:11.460Z,2248.00
2018-12-23T08:51:11.665Z,2139.00
2018-12-23T08:52:11.928Z,2019.00
2018-12-23T08:53:12.125Z,1735.00
2018-12-23T08:54:12.532Z,1494.00
2018-12-23T08:55:12.743Z,1395.00
2018-12-23T08:56:12.954Z,1434.00
2018-12-23T08:57:13.160Z,1432.00
2018-12-23T08:58:13.356Z,1463.00
2018-12-23T08:59:13.632Z,1579.00
2018-12-23T09:00:13.826Z,1668.00
2018-12-23T09:01:14.034Z,1789.00
2018-12-23T09:02:14.245Z,1763.00
2018-12-23T09:03:18.770Z,1750.00
2018-12-23T09:04:14.755Z,1801.00
2018-12-23T09:05:14.975Z,1775.00
2018-12-23T09:06:15.329Z,1679.00
2018-12-23T09:07:15.555Z,1706.00
2018-12-23T09:08:15.781Z,1813.00
2018-12-23T09:09:16.049Z,1855.00
2018-12-23T09:10:16.444Z,1762.00
2018-12-23T09:11:16.575Z,1776.00
2018-12-23T09:12:16.805Z,1866.00
2018-12-23T09:13:17.014Z,1980.00
2018-12-23T09:14:17.302Z,2157.00
2018-12-23T09:15:17.507Z,2279.00
2018-12-23T09:16:18.090Z,2447.00
2018-12-23T09:17:17.937Z,2583.00
2018-12-23T09:18:19.405Z,2724.00
2018-12-23T09:19:18.406Z,2943.00
2018-12-23T09:20:18.646Z,3078.00
2018-12-23T09:21:18.844Z,3038.00
2018-12-23T09:22:19.802Z,3092.00
2018-12-23T09:23:19.251Z,3055.00
2018-12-23T09:24:19.464Z,2985.00
2018-12-23T09:25:19.703Z,2956.00
2018-12-23T09:26:19.894Z,2941.00
2018-12-23T09:27:20.093Z,3071.00
2018-12-23T09:28:20.356Z,3298.00
2018-12-23T09:29:20.576Z,3498.00
2018-12-23T09:30:20.801Z,3703.00
2018-12-23T09:31:21.011Z,3985.00
2018-12-23T09:32:21.209Z,4069.00
2018-12-23T09:33:21.436Z,4076.00
2018-12-23T09:34:21.639Z,4181.00
2018-12-23T09:35:21.840Z,4350.00
2018-12-23T09:36:22.057Z,4443.00
2018-12-23T09:38:22.271Z,4553.00
2018-12-23T09:39:22.467Z,4505.00
2018-12-23T09:40:22.671Z,4432.00
2018-12-23T09:41:22.880Z,4380.00
2018-12-23T09:42:23.102Z,4344.00
2018-12-23T09:43:23.300Z,4253.00
2018-12-23T09:44:23.503Z,4141.00
2018-12-23T09:45:23.725Z,3944.00
2018-12-23T09:46:23.939Z,3863.00
2018-12-23T09:47:24.177Z,4009.00
2018-12-23T09:48:24.383Z,4154.00
2018-12-23T09:49:24.605Z,4244.00
2018-12-23T09:50:24.829Z,4400.00
2018-12-23T09:51:25.036Z,4473.00
2018-12-23T09:52:25.335Z,4592.00
2018-12-23T09:53:25.551Z,4701.00
2018-12-23T09:54:25.933Z,4814.00
2018-12-23T09:55:16.904Z,4998.00
2018-12-23T09:56:26.596Z,5089.00
2018-12-23T09:57:26.820Z,5112.00
2018-12-23T09:58:27.020Z,5104.00
2018-12-23T09:59:27.211Z,5059.00
2018-12-23T10:00:27.421Z,4977.00
2018-12-23T10:01:27.635Z,4901.00
2018-12-23T10:02:27.835Z,4871.00
2018-12-23T10:03:28.027Z,4878.00
2018-12-23T10:04:28.222Z,4904.00
2018-12-23T10:05:28.441Z,4948.00
2018-12-23T10:06:28.645Z,4986.00
2018-12-23T10:07:28.842Z,5038.00
2018-12-23T10:08:29.035Z,5105.00
2018-12-23T10:09:29.265Z,5137.00
2018-12-23T10:10:29.462Z,5155.00
2018-12-23T10:11:29.652Z,5158.00
2018-12-23T10:12:29.843Z,5138.00
2018-12-23T10:13:30.029Z,5123.00
2018-12-23T10:14:30.227Z,5159.00
2018-12-23T10:15:30.446Z,5229.00
2018-12-23T10:16:30.656Z,5295.00
2018-12-23T10:17:30.841Z,5322.00
2018-12-23T10:18:31.048Z,5315.00
2018-12-23T10:19:31.242Z,5296.00
2018-12-23T10:20:31.458Z,5252.00
2018-12-23T10:21:31.656Z,5224.00
2018-12-23T10:22:31.854Z,5210.00
2018-12-23T10:23:32.048Z,5216.00
2018-12-23T10:24:32.247Z,5193.00
2018-12-23T10:25:32.466Z,5157.00
2018-12-23T10:26:32.666Z,5088.00
2018-12-23T10:27:32.862Z,4985.00
2018-12-23T10:28:33.045Z,4839.00
2018-12-23T10:29:33.233Z,4770.00
2018-12-23T10:30:33.425Z,4790.00
2018-12-23T10:31:33.629Z,4786.00
2018-12-23T10:32:33.819Z,4613.00
2018-12-23T10:33:34.013Z,4385.00
2018-12-23T10:34:34.204Z,4423.00
2018-12-23T10:35:34.401Z,4397.00
2018-12-23T10:36:34.604Z,3985.00
2018-12-23T10:37:35.192Z,3891.00
2018-12-23T10:38:35.269Z,3963.00
2018-12-23T10:39:35.483Z,3737.00
2018-12-23T10:40:35.682Z,3511.00
2018-12-23T10:41:35.879Z,3519.00
2018-12-23T10:42:36.077Z,3849.00
2018-12-23T10:43:36.447Z,3961.00
2018-12-23T10:44:36.759Z,3960.00
2018-12-23T10:45:36.964Z,3909.00
2018-12-23T10:46:37.207Z,3936.00
2018-12-23T10:47:37.396Z,4008.00
2018-12-23T10:48:37.609Z,3995.00
2018-12-23T10:49:37.799Z,3961.00
2018-12-23T10:50:38.000Z,3867.00
2018-12-23T10:51:38.194Z,3952.00
2018-12-23T10:52:38.398Z,4102.00
2018-12-23T10:53:38.616Z,4030.00
2018-12-23T10:54:38.816Z,3991.00
2018-12-23T10:55:39.021Z,3834.00
2018-12-23T10:56:39.227Z,3706.00
2018-12-23T10:57:39.436Z,3766.00
2018-12-23T10:58:39.632Z,4258.00
2018-12-23T10:59:39.832Z,4704.00
2018-12-23T11:00:40.039Z,5003.00
2018-12-23T11:01:40.282Z,5021.00
2018-12-23T11:02:40.481Z,4983.00
2018-12-23T11:03:40.697Z,5276.00
2018-12-23T11:04:40.905Z,5627.00
2018-12-23T11:05:41.100Z,5771.00
2018-12-23T11:06:41.310Z,5892.00
2018-12-23T11:08:41.513Z,6027.00
2018-12-23T11:09:41.737Z,5963.00
2018-12-23T11:10:41.937Z,5754.00
2018-12-23T11:11:42.132Z,5459.00
2018-12-23T11:12:42.334Z,5003.00
2018-12-23T11:13:42.530Z,4591.00
2018-12-23T11:14:42.727Z,4139.00
2018-12-23T11:15:42.920Z,3391.00
2018-12-23T11:16:43.121Z,2938.00
2018-12-23T11:17:43.337Z,2677.00
2018-12-23T11:18:43.533Z,2241.00
2018-12-23T11:19:43.726Z,2047.00
2018-12-23T11:20:44.001Z,2116.00
2018-12-23T11:21:44.121Z,1915.00
2018-12-23T11:22:44.326Z,1846.00
2018-12-23T11:23:44.522Z,1839.00
2018-12-23T11:24:44.720Z,1641.00
2018-12-23T11:25:45.022Z,1690.00
2018-12-23T11:26:45.142Z,1572.00
2018-12-23T11:27:45.350Z,1411.00
2018-12-23T11:28:45.559Z,1519.00
2018-12-23T11:29:45.776Z,1425.00
2018-12-23T11:30:45.988Z,1329.00
2018-12-23T11:31:46.187Z,1227.00
2018-12-23T11:32:46.398Z,1237.00
2018-12-23T11:33:46.587Z,1282.00
2018-12-23T11:34:46.786Z,1552.00
2018-12-23T11:35:46.996Z,1456.00
2018-12-23T11:36:47.189Z,1409.00
2018-12-23T11:37:47.390Z,1454.00
2018-12-23T11:38:47.603Z,1543.00
2018-12-23T11:39:47.806Z,1525.00
2018-12-23T11:40:48.031Z,1608.00
2018-12-23T11:41:48.224Z,1565.00
2018-12-23T11:42:48.422Z,1397.00
2018-12-23T11:43:48.664Z,1450.00
2018-12-23T11:44:48.881Z,1602.00
2018-12-23T11:45:49.074Z,1761.00
2018-12-23T11:46:49.292Z,1615.00
2018-12-23T11:47:49.494Z,1588.00
2018-12-23T11:48:49.695Z,1631.00
2018-12-23T11:49:49.935Z,1608.00
2018-12-23T11:50:50.139Z,1609.00
2018-12-23T11:51:50.349Z,1631.00
2018-12-23T11:52:50.553Z,1621.00
2018-12-23T11:53:50.760Z,1829.00
2018-12-23T11:54:50.958Z,2099.00
2018-12-23T11:55:51.205Z,2258.00
2018-12-23T11:56:51.419Z,2380.00
2018-12-23T11:57:51.617Z,2458.00
2018-12-23T11:58:51.855Z,2299.00
2018-12-23T11:59:52.060Z,2123.00
2018-12-23T12:00:52.330Z,2068.00
2018-12-23T12:01:52.609Z,2095.00
2018-12-23T12:02:52.839Z,2244.00
2018-12-23T12:03:53.077Z,2356.00
2018-12-23T12:04:53.236Z,2381.00
2018-12-23T12:05:53.430Z,2390.00
2018-12-23T12:06:53.629Z,2584.00
2018-12-23T12:07:53.821Z,2581.00
2018-12-23T12:08:54.026Z,2754.00
2018-12-23T12:09:54.269Z,3038.00
2018-12-23T12:10:54.469Z,2650.00
2018-12-23T12:11:54.675Z,2702.00
2018-12-23T12:12:54.863Z,2623.00
2018-12-23T12:13:55.068Z,2582.00
2018-12-23T12:14:55.271Z,2660.00
2018-12-23T12:15:55.459Z,2838.00
2018-12-23T12:16:55.728Z,2350.00
2018-12-23T12:17:55.864Z,2259.00
2018-12-23T12:18:56.071Z,2349.00
2018-12-23T12:19:56.277Z,2557.00
2018-12-23T12:20:56.490Z,2622.00
2018-12-23T12:21:56.701Z,2529.00
2018-12-23T12:22:56.962Z,2709.00
2018-12-23T12:23:57.174Z,3191.00
2018-12-23T12:24:57.381Z,3294.00
2018-12-23T12:25:57.573Z,3064.00
2018-12-23T12:26:57.794Z,3559.00
2018-12-23T12:27:57.986Z,3347.00
2018-12-23T12:28:58.226Z,3521.00
2018-12-23T12:29:58.438Z,3526.00
2018-12-23T12:30:58.629Z,3772.00
2018-12-23T12:31:58.832Z,3818.00
2018-12-23T12:32:59.023Z,3810.00
2018-12-23T12:33:59.218Z,3687.00
2018-12-23T12:34:59.425Z,3466.00
2018-12-23T12:35:59.675Z,3394.00
2018-12-23T12:36:59.917Z,3289.00
2018-12-23T12:38:00.143Z,3238.00
2018-12-23T12:39:00.411Z,3240.00
2018-12-23T12:40:00.711Z,3212.00
2018-12-23T12:41:00.951Z,3170.00
2018-12-23T12:42:01.145Z,3150.00
2018-12-23T12:43:01.340Z,3173.00
2018-12-23T12:44:01.546Z,3179.00
2018-12-23T12:45:01.755Z,3142.00
2018-12-23T12:46:01.779Z,3072.00
2018-12-23T12:47:01.980Z,2988.00
2018-12-23T12:48:02.197Z,2842.00
2018-12-23T12:49:02.386Z,2727.00
2018-12-23T12:50:02.631Z,2658.00
2018-12-23T12:51:02.830Z,2578.00
2018-12-23T12:52:03.062Z,2529.00
2018-12-23T12:53:03.262Z,2537.00
2018-12-23T12:54:03.459Z,2426.00
2018-12-23T12:55:03.663Z,2467.00
2018-12-23T12:56:03.907Z,2407.00
2018-12-23T12:57:04.100Z,2428.00
2018-12-23T12:58:06.696Z,2536.00
2018-12-23T12:59:04.366Z,2558.00
2018-12-23T13:00:04.571Z,2523.00
2018-12-23T13:01:04.850Z,2465.00
2018-12-23T13:02:05.042Z,2443.00
2018-12-23T13:03:05.231Z,2394.00
2018-12-23T13:04:05.424Z,2382.00